Time;durP1;ratioP1;P1;durP2;ratioP2;P2;SDS_P1;SDS_P2;PMS_P1;PMS_P2;Temp;Humidity;BMP_temperature;BMP_pressure;BME280_temperature;BME280_humidity;BME280_pressure;Samples;Min_cycle;Max_cycle;Signal;HPM_P1;HPM_P2
2021/05/27 00:01:55;;;;;;;9.85;4.80;;;;;;;14.75;46.40;98572.42;2150673;83;20930;-80
2021/05/27 00:04:56;;;;;;;7.50;4.80;;;;;;;14.70;46.58;98565.44;2150602;83;20970;-80
2021/05/27 00:07:58;;;;;;;8.68;4.50;;;;;;;14.64;46.90;98567.23;2150801;83;20945;-80
2021/05/27 00:10:59;;;;;;;95.72;14.75;;;;;;;14.60;47.01;98573.41;2150715;82;21390;-82
2021/05/27 00:14:00;;;;;;;17.20;4.90;;;;;;;14.59;47.07;98574.73;2151837;83;20934;-79
2021/05/27 00:17:02;;;;;;;19.35;6.33;;;;;;;14.56;47.18;98574.31;2150405;83;21057;-80
2021/05/27 00:20:03;;;;;;;8.38;4.78;;;;;;;14.57;47.28;98576.05;2149997;82;21105;-79
2021/05/27 00:23:04;;;;;;;7.10;4.47;;;;;;;14.57;47.40;98577.36;2150193;83;20962;-78
2021/05/27 00:26:05;;;;;;;11.00;4.22;;;;;;;14.58;47.52;98580.42;2150348;83;20970;-81
2021/05/27 00:29:06;;;;;;;7.40;4.05;;;;;;;14.57;47.52;98585.25;2150614;83;20950;-81
2021/05/27 00:32:07;;;;;;;8.03;4.47;;;;;;;14.57;47.71;98587.00;2150490;83;21358;-78
2021/05/27 00:35:08;;;;;;;7.50;4.78;;;;;;;14.54;47.83;98581.33;2149870;82;21037;-80
2021/05/27 00:38:09;;;;;;;10.98;4.60;;;;;;;14.55;48.05;98590.08;2150198;82;20938;-80
2021/05/27 00:41:10;;;;;;;9.78;4.92;;;;;;;14.74;48.80;98581.19;2150684;82;20977;-80
2021/05/27 00:44:11;;;;;;;6.45;4.20;;;;;;;14.75;48.09;98584.69;2149992;83;20966;-80
2021/05/27 00:47:12;;;;;;;12.68;4.80;;;;;;;14.65;48.13;98588.68;2149824;83;20955;-81
2021/05/27 00:50:20;;;;;;;7.05;4.30;;;;;;;14.58;48.33;98591.37;2149879;83;21373;-81
2021/05/27 00:53:16;;;;;;;10.13;4.40;;;;;;;14.50;48.71;98594.06;2149260;82;20911;-80
2021/05/27 00:56:16;;;;;;;17.62;4.60;;;;;;;14.43;48.79;98592.36;2150169;82;21294;-80
2021/05/27 00:59:17;;;;;;;9.85;4.65;;;;;;;14.41;49.07;98605.05;2150060;82;21037;-79
2021/05/27 01:02:18;;;;;;;8.53;4.10;;;;;;;14.38;49.38;98610.31;2150022;82;21294;-80
2021/05/27 01:05:19;;;;;;;9.88;4.65;;;;;;;14.33;49.71;98611.66;2149973;82;21025;-79
2021/05/27 01:08:20;;;;;;;7.83;4.28;;;;;;;14.29;49.72;98612.56;2150127;83;20962;-80
2021/05/27 01:11:21;;;;;;;13.50;4.65;;;;;;;14.24;50.21;98613.91;2149847;82;20981;-79
2021/05/27 01:17:41;;;;;;;7.35;4.20;;;;;;;14.15;50.47;98618.34;2149910;82;20947;-80
2021/05/27 01:20:43;;;;;;;8.35;4.53;;;;;;;14.12;50.75;98613.11;2150406;81;21042;-80
2021/05/27 01:23:47;;;;;;;15.83;5.03;;;;;;;14.07;50.90;98629.33;2150249;83;21034;-78
2021/05/27 01:26:48;;;;;;;15.30;5.28;;;;;;;14.02;51.32;98631.54;2149815;82;21021;-79
2021/05/27 01:29:49;;;;;;;20.48;6.05;;;;;;;13.97;51.39;98629.37;2149811;83;20974;-78
2021/05/27 01:32:50;;;;;;;27.67;5.90;;;;;;;13.94;51.82;98628.08;2149986;83;20941;-79
2021/05/27 01:35:51;;;;;;;11.28;5.72;;;;;;;13.85;52.05;98626.78;2150146;83;20962;-78
2021/05/27 01:38:52;;;;;;;24.10;6.30;;;;;;;13.81;52.20;98627.67;2149970;82;21014;-79
2021/05/27 01:41:54;;;;;;;16.20;5.95;;;;;;;13.78;52.39;98633.38;2133592;83;20919;-80
2021/05/27 01:44:55;;;;;;;9.23;5.10;;;;;;;13.74;52.65;98628.58;2150449;82;21009;-78
2021/05/27 01:47:56;;;;;;;11.40;5.05;;;;;;;13.72;52.81;98631.65;2150911;83;21374;-79
2021/05/27 01:50:57;;;;;;;10.98;4.70;;;;;;;13.68;53.20;98633.41;2150301;82;21389;-80
2021/05/27 01:53:58;;;;;;;9.75;4.33;;;;;;;13.65;53.19;98631.24;2150143;82;21335;-80
2021/05/27 01:56:59;;;;;;;13.32;4.72;;;;;;;13.62;53.71;98635.19;2150261;83;20954;-79
2021/05/27 02:00:00;;;;;;;8.15;4.62;;;;;;;13.56;54.18;98636.52;2150030;83;20922;-80
2021/05/27 02:03:01;;;;;;;7.53;3.98;;;;;;;13.51;54.20;98633.05;2150287;82;20930;-81
2021/05/27 02:06:02;;;;;;;9.85;4.25;;;;;;;13.45;54.64;98630.00;2150050;83;20914;-79
2021/05/27 02:09:10;;;;;;;6.55;3.50;;;;;;;13.38;55.06;98630.45;2149480;82;21366;-78
2021/05/27 02:12:11;;;;;;;7.10;3.75;;;;;;;13.37;55.22;98628.71;2150389;82;21022;-80
2021/05/27 02:15:12;;;;;;;4.80;2.75;;;;;;;13.34;55.29;98632.66;2150033;82;21026;-80
2021/05/27 02:18:12;;;;;;;5.78;3.35;;;;;;;13.32;55.44;98636.16;2150235;83;20939;-79
2021/05/27 02:24:16;;;;;;;4.75;3.00;;;;;;;13.17;56.00;98647.55;2133955;83;21041;-80
2021/05/27 02:27:17;;;;;;;5.03;2.98;;;;;;;13.13;56.43;98648.39;2150077;82;20957;-79
2021/05/27 02:30:18;;;;;;;5.58;3.02;;;;;;;13.11;56.66;98646.65;2149974;83;20963;-79
2021/05/27 02:33:19;;;;;;;9.20;3.20;;;;;;;13.07;56.57;98651.02;2150175;83;21010;-80
2021/05/27 02:36:20;;;;;;;5.83;3.00;;;;;;;13.02;56.61;98648.41;2150281;82;21326;-80
2021/05/27 02:39:21;;;;;;;3.80;3.02;;;;;;;12.98;56.84;98653.62;2150097;83;21069;-80
2021/05/27 02:42:22;;;;;;;6.92;2.95;;;;;;;12.94;57.13;98654.49;2150174;82;21414;-79
2021/05/27 02:45:23;;;;;;;16.02;3.70;;;;;;;12.90;57.25;98656.68;2150257;82;20994;-79
2021/05/27 02:48:24;;;;;;;5.65;3.40;;;;;;;12.88;57.46;98655.37;2149286;82;21306;-76
2021/05/27 02:51:25;;;;;;;8.43;3.05;;;;;;;12.84;57.78;98650.13;2149201;82;20994;-75
2021/05/27 02:54:26;;;;;;;4.20;2.90;;;;;;;12.81;57.78;98647.08;2149057;83;20966;-77
2021/05/27 02:57:28;;;;;;;6.15;2.85;;;;;;;12.79;57.99;98647.52;2149147;83;20945;-76
2021/05/27 03:00:28;;;;;;;5.17;2.72;;;;;;;12.79;58.06;98654.50;2149010;83;21175;-76
2021/05/27 03:03:30;;;;;;;4.33;2.70;;;;;;;12.78;57.81;98654.06;2149181;82;21022;-76
2021/05/27 03:06:31;;;;;;;5.65;2.92;;;;;;;12.80;58.01;98652.31;2149039;82;21014;-76
2021/05/27 03:11:39;;;;;;;5.72;2.77;;;;;;;12.88;58.04;98652.75;2212538;78;23133;-80
2021/05/27 03:14:40;;;;;;;3.83;2.40;;;;;;;12.85;58.08;98650.56;2179394;82;21050;-81
2021/05/27 03:17:40;;;;;;;7.55;3.65;;;;;;;13.01;59.15;98644.04;2178953;82;21013;-80
2021/05/27 03:20:42;;;;;;;7.53;3.30;;;;;;;13.47;58.57;98636.11;2179502;82;21101;-80
2021/05/27 03:23:43;;;;;;;9.93;2.80;;;;;;;13.49;57.32;98629.55;2179357;82;21143;-80
2021/05/27 03:26:44;;;;;;;6.50;2.95;;;;;;;13.44;57.30;98634.81;2179343;82;21317;-82
2021/05/27 03:29:45;;;;;;;5.50;2.87;;;;;;;13.37;57.23;98645.75;2179325;82;21029;-80
2021/05/27 03:32:47;;;;;;;6.42;3.10;;;;;;;13.30;57.16;98638.78;2179578;82;20977;-81
2021/05/27 03:35:47;;;;;;;4.97;2.50;;;;;;;13.27;57.26;98644.47;2179422;82;20966;-80
2021/05/27 03:38:49;;;;;;;70.35;6.85;;;;;;;13.28;57.37;98649.70;2179539;82;21073;-80
2021/05/27 04:17:17;;;;;;;2.98;2.60;;;;;;;14.07;55.83;98684.00;2262090;79;22830;-82
2021/05/27 04:20:20;;;;;;;2.90;2.52;;;;;;;14.05;55.57;98686.20;2229225;80;21049;-81
2021/05/27 04:23:40;;;;;;;5.87;2.80;;;;;;;14.07;55.56;98693.19;2229155;80;21029;-82
2021/05/27 04:26:41;;;;;;;3.98;2.83;;;;;;;14.17;55.57;98696.64;2197999;80;21073;-80
2021/05/27 04:29:42;;;;;;;4.25;2.72;;;;;;;14.33;55.43;98695.24;2228858;80;21045;-82
2021/05/27 04:32:54;;;;;;;6.67;2.80;;;;;;;14.45;55.32;98698.27;2229465;80;21092;-81
2021/05/27 04:35:54;;;;;;;8.83;2.10;;;;;;;14.58;54.84;98693.38;2229299;80;21053;-81
2021/05/27 04:38:55;;;;;;;4.67;2.33;;;;;;;14.63;54.39;98694.21;2229107;80;21057;-81
2021/05/27 04:41:56;;;;;;;5.03;2.55;;;;;;;14.60;54.40;98692.05;2229087;80;20972;-81
2021/05/27 04:44:57;;;;;;;3.30;2.12;;;;;;;14.70;54.05;98692.86;2228529;80;21065;-81
2021/05/27 04:47:58;;;;;;;3.90;2.83;;;;;;;15.00;53.57;98691.34;2227467;80;21001;-83
2021/05/27 04:50:59;;;;;;;3.05;2.40;;;;;;;15.28;53.26;98694.15;2227687;80;21708;-85
2021/05/27 04:54:00;;;;;;;4.53;2.80;;;;;;;15.64;52.51;98692.10;2227577;80;21084;-81
2021/05/27 04:57:01;;;;;;;4.97;3.30;;;;;;;15.63;52.22;98701.33;2227105;80;21017;-81
2021/05/27 05:00:03;;;;;;;245.82;18.45;;;;;;;15.63;51.94;98692.12;2226831;80;21053;-81
2021/05/27 05:03:04;;;;;;;4.12;1.70;;;;;;;15.64;51.76;98695.17;2226402;80;21392;-81
2021/05/27 05:06:05;;;;;;;2.75;1.77;;;;;;;15.60;51.80;98699.56;2226882;80;21017;-83
2021/05/27 05:09:07;;;;;;;3.65;1.77;;;;;;;15.55;51.31;98697.39;2226279;80;21124;-82
2021/05/27 05:12:08;;;;;;;4.42;3.00;;;;;;;15.39;51.61;98701.06;2227101;80;21016;-81
2021/05/27 05:15:09;;;;;;;5.72;2.30;;;;;;;15.37;51.45;98705.47;2223909;80;21084;-80
2021/05/27 05:18:10;;;;;;;3.80;2.20;;;;;;;15.44;51.53;98717.23;2209835;81;20969;-81
2021/05/27 05:21:11;;;;;;;4.42;1.65;;;;;;;15.51;50.83;98714.09;2210057;81;20981;-81
2021/05/27 05:24:12;;;;;;;1.90;1.50;;;;;;;15.59;50.88;98709.66;2210217;81;21021;-81
2021/05/27 05:27:13;;;;;;;2.62;1.40;;;;;;;15.84;50.78;98708.53;2209682;81;21148;-80
2021/05/27 05:30:14;;;;;;;3.37;1.70;;;;;;;16.09;50.08;98714.83;2209471;81;21394;-82
2021/05/27 05:33:16;;;;;;;1.82;1.40;;;;;;;16.40;48.92;98715.30;2210410;81;21080;-80
2021/05/27 05:36:16;;;;;;;12.23;2.35;;;;;;;16.62;47.64;98706.23;2210273;81;20998;-80
2021/05/27 05:39:17;;;;;;;8.53;2.37;;;;;;;16.90;48.10;98717.27;2210430;81;21001;-80
2021/05/27 05:42:18;;;;;;;3.98;1.45;;;;;;;17.25;46.81;98708.77;2210665;81;20962;-80
2021/05/27 05:45:19;;;;;;;13.25;1.77;;;;;;;17.25;46.81;98708.77;2210772;81;20993;-82
2021/05/27 05:48:20;;;;;;;5.05;1.57;;;;;;;17.37;45.72;98702.00;2211055;81;21327;-80
2021/05/27 05:51:21;;;;;;;8.38;1.95;;;;;;;17.54;45.54;98719.30;2210757;81;21058;-81
2021/05/27 05:54:22;;;;;;;3.92;1.45;;;;;;;17.66;45.41;98723.03;2209758;81;21342;-80
2021/05/27 05:57:24;;;;;;;3.92;1.37;;;;;;;17.79;45.20;98724.12;2210219;81;21164;-80
2021/05/27 06:00:24;;;;;;;7.55;1.40;;;;;;;18.04;45.08;98727.61;2210454;81;21338;-80
2021/05/27 06:03:26;;;;;;;7.22;1.92;;;;;;;18.11;44.38;98727.91;2209981;81;20973;-82
2021/05/27 06:06:26;;;;;;;9.35;1.85;;;;;;;18.02;44.71;98732.05;2210132;81;20970;-81
2021/05/27 06:09:33;;;;;;;9.63;1.60;;;;;;;17.93;44.71;98746.76;2209752;81;21104;-79
2021/05/27 06:12:34;;;;;;;3.52;1.60;;;;;;;17.94;43.83;98750.69;2209322;81;21053;-78
2021/05/27 06:15:37;;;;;;;7.17;1.85;;;;;;;17.53;44.39;98744.81;2210680;80;20986;-81
2021/05/27 06:18:37;;;;;;;6.17;1.70;;;;;;;17.51;45.38;98753.21;2217051;80;21064;-80
2021/05/27 06:21:38;;;;;;;12.78;1.50;;;;;;;17.59;44.81;98757.91;2217391;80;21046;-81
2021/05/27 06:24:39;;;;;;;3.30;1.70;;;;;;;17.77;44.63;98762.02;2217369;80;21009;-81
2021/05/27 06:27:40;;;;;;;3.30;1.30;;;;;;;17.55;44.25;98760.63;2217290;80;21014;-79
2021/05/27 06:30:41;;;;;;;9.35;1.80;;;;;;;17.36;45.09;98758.75;2217578;80;20954;-81
2021/05/27 06:33:42;;;;;;;4.10;1.80;;;;;;;17.28;45.38;98766.77;2217590;80;21017;-80
2021/05/27 06:36:43;;;;;;;2.62;1.60;;;;;;;17.08;45.24;98759.61;2217717;80;20981;-80
2021/05/27 06:39:43;;;;;;;4.00;1.37;;;;;;;17.14;46.08;98759.52;2217227;80;20943;-81
2021/05/27 06:42:44;;;;;;;12.47;2.20;;;;;;;17.30;45.88;98758.82;2217294;80;21416;-80
2021/05/27 06:45:44;;;;;;;4.30;2.90;;;;;;;17.54;45.40;98754.48;2216710;80;20954;-80
2021/05/27 06:48:45;;;;;;;6.55;3.02;;;;;;;17.90;44.44;98752.09;2217346;80;20957;-80
2021/05/27 06:51:46;;;;;;;8.95;3.80;;;;;;;18.36;44.52;98752.08;2217210;80;20957;-79
2021/05/27 06:54:46;;;;;;;3.77;1.80;;;;;;;18.60;43.34;98754.65;2217620;80;20953;-80
2021/05/27 06:57:47;;;;;;;11.50;6.05;;;;;;;18.18;43.64;98758.58;2217457;80;21414;-80
2021/05/27 07:00:47;;;;;;;6.90;3.80;;;;;;;17.70;44.49;98756.43;2216438;80;21012;-81
2021/05/27 07:03:48;;;;;;;5.83;2.15;;;;;;;17.49;45.45;98754.56;2216405;80;20965;-81
2021/05/27 07:06:49;;;;;;;3.85;1.35;;;;;;;17.71;45.21;98766.95;2216846;80;21350;-80
2021/05/27 07:09:49;;;;;;;4.60;2.27;;;;;;;17.86;45.60;98771.53;2217463;80;20997;-80
2021/05/27 07:12:53;;;;;;;14.58;4.90;;;;;;;17.96;45.34;98770.47;2217742;80;20997;-81
2021/05/27 07:15:54;;;;;;;12.23;4.22;;;;;;;18.20;44.73;98762.06;2215530;80;20994;-80
2021/05/27 07:18:54;;;;;;;7.92;4.55;;;;;;;18.46;43.42;98761.11;2209984;81;21048;-81
2021/05/27 07:21:55;;;;;;;5.10;2.27;;;;;;;18.85;43.77;98757.20;2210193;81;20962;-79
2021/05/27 07:24:55;;;;;;;6.75;1.77;;;;;;;18.86;43.32;98770.84;2210115;81;21017;-81
2021/05/27 07:27:57;;;;;;;14.30;7.58;;;;;;;19.17;42.83;98765.73;2210147;81;21484;-81
2021/05/27 07:30:57;;;;;;;2.77;1.72;;;;;;;19.34;41.43;98766.65;2210113;81;21303;-81
2021/05/27 07:33:58;;;;;;;20.10;4.50;;;;;;;19.17;41.53;98766.19;2209776;81;21029;-81
2021/05/27 07:36:58;;;;;;;1.62;1.52;;;;;;;19.20;41.50;98761.69;2210158;81;21383;-79
2021/05/27 07:39:59;;;;;;;4.28;1.90;;;;;;;19.01;40.92;98767.84;2209701;81;21034;-83
2021/05/27 07:42:59;;;;;;;2.75;1.70;;;;;;;18.85;41.91;98774.39;2209606;81;21017;-80
2021/05/27 07:46:00;;;;;;;4.05;1.57;;;;;;;18.80;42.20;98767.01;2209370;81;21022;-80
2021/05/27 07:49:01;;;;;;;3.47;2.42;;;;;;;18.88;41.97;98770.34;2209299;81;21048;-79
2021/05/27 07:52:02;;;;;;;4.20;1.82;;;;;;;19.45;41.26;98767.25;2209278;81;21077;-81
2021/05/27 07:55:02;;;;;;;7.30;2.17;;;;;;;19.32;40.34;98772.44;2209362;81;21326;-80
2021/05/27 07:58:03;;;;;;;4.83;1.60;;;;;;;18.83;42.14;98772.68;2209489;81;21093;-81
2021/05/27 08:01:05;;;;;;;7.37;2.20;;;;;;;18.18;43.05;98781.03;2210118;81;20946;-82
2021/05/27 08:04:07;;;;;;;6.05;2.02;;;;;;;17.65;44.40;98786.83;2188492;81;21065;-80
2021/05/27 08:07:08;;;;;;;2.47;1.87;;;;;;;17.42;44.67;98796.91;2209898;81;20989;-82
2021/05/27 08:10:09;;;;;;;2.80;1.67;;;;;;;17.35;45.09;98804.50;2209851;81;20986;-81
2021/05/27 08:13:10;;;;;;;4.90;1.57;;;;;;;17.77;44.80;98798.98;2209820;81;21326;-79
2021/05/27 08:16:12;;;;;;;2.08;1.50;;;;;;;18.14;44.12;98799.16;2212474;80;21018;-80
2021/05/27 08:19:13;;;;;;;14.80;2.50;;;;;;;18.45;43.37;98791.53;2220494;80;20982;-80
2021/05/27 08:22:16;;;;;;;12.43;5.70;;;;;;;18.91;41.50;98774.25;2220189;80;20942;-81
2021/05/27 08:25:17;;;;;;;3.65;2.40;;;;;;;19.40;41.76;98784.57;2220177;80;21450;-81
2021/05/27 08:28:18;;;;;;;2.45;1.80;;;;;;;19.62;41.40;98780.96;2220534;80;21018;-79
2021/05/27 08:31:19;;;;;;;3.08;1.80;;;;;;;19.43;41.72;98788.92;2220259;80;20998;-81
2021/05/27 08:34:20;;;;;;;1.92;1.60;;;;;;;19.34;41.31;98788.69;2220856;80;20938;-81
2021/05/27 08:37:20;;;;;;;6.90;1.67;;;;;;;19.25;40.57;98788.05;2220963;80;21030;-80
2021/05/27 08:40:21;;;;;;;1.82;1.60;;;;;;;19.26;40.92;98786.68;2220935;80;21021;-80
2021/05/27 08:43:22;;;;;;;2.65;1.60;;;;;;;19.32;39.89;98785.21;2220414;80;20998;-81
2021/05/27 08:46:23;;;;;;;4.05;1.52;;;;;;;19.43;39.87;98791.56;2219587;80;20983;-81
2021/05/27 08:49:24;;;;;;;3.70;1.80;;;;;;;19.72;39.22;98794.38;2219856;80;21045;-81
2021/05/27 08:52:25;;;;;;;3.55;2.02;;;;;;;19.94;37.81;98792.49;2220049;80;21053;-81
2021/05/27 08:55:26;;;;;;;5.45;1.55;;;;;;;20.01;38.15;98796.75;2219720;80;21001;-81
2021/05/27 08:58:31;;;;;;;9.43;1.82;;;;;;;19.94;38.32;98789.84;2220047;80;21128;-79
2021/05/27 09:01:32;;;;;;;2.42;1.80;;;;;;;19.74;38.31;98791.69;2220734;80;21061;-80
2021/05/27 09:04:34;;;;;;;4.08;2.00;;;;;;;19.32;39.37;98802.41;2220214;80;20993;-80
2021/05/27 09:07:35;;;;;;;3.30;1.60;;;;;;;19.21;40.31;98794.31;2221083;80;21029;-81
2021/05/27 09:10:36;;;;;;;5.92;1.60;;;;;;;19.19;40.92;98802.29;2220914;80;21041;-79
2021/05/27 09:13:37;;;;;;;1.95;1.75;;;;;;;18.86;40.60;98806.54;2220663;80;20969;-81
2021/05/27 09:16:39;;;;;;;1.32;1.20;;;;;;;18.92;40.03;98806.41;2218160;79;21137;-81
2021/05/27 09:19:40;;;;;;;3.85;1.62;;;;;;;18.86;39.90;98803.89;2209527;81;21109;-81
2021/05/27 09:22:41;;;;;;;4.95;1.20;;;;;;;18.99;39.31;98805.36;2209744;81;21005;-80
2021/05/27 09:25:42;;;;;;;2.27;1.20;;;;;;;19.15;39.36;98799.75;2208994;81;21393;-81
2021/05/27 09:28:43;;;;;;;1.70;1.60;;;;;;;19.54;38.63;98807.22;2209259;81;21097;-82
2021/05/27 09:31:43;;;;;;;3.75;1.50;;;;;;;19.87;38.68;98799.73;2209477;81;21045;-78
2021/05/27 09:34:45;;;;;;;1.90;1.42;;;;;;;20.25;38.05;98800.51;2209380;81;21037;-81
2021/05/27 09:37:45;;;;;;;1.45;1.35;;;;;;;20.67;36.77;98797.11;2210117;81;20993;-79
2021/05/27 09:40:46;;;;;;;8.40;1.82;;;;;;;21.15;34.83;98800.55;2210874;81;21017;-81
2021/05/27 09:43:47;;;;;;;5.10;1.30;;;;;;;21.03;34.56;98799.59;2210663;81;20942;-81
2021/05/27 09:46:48;;;;;;;13.72;1.42;;;;;;;21.21;34.05;98795.91;2210241;81;21070;-79
2021/05/27 09:49:49;;;;;;;2.45;1.40;;;;;;;21.46;34.57;98800.00;2210038;81;21344;-82
2021/05/27 09:52:50;;;;;;;3.10;1.40;;;;;;;21.61;35.24;98798.16;2209456;81;21334;-82
2021/05/27 09:55:52;;;;;;;1.30;1.20;;;;;;;21.51;34.62;98807.36;2209426;81;21001;-81
2021/05/27 09:58:54;;;;;;;1.30;1.20;;;;;;;21.11;35.48;98805.53;2210422;81;21152;-81
2021/05/27 10:01:55;;;;;;;1.47;1.37;;;;;;;20.71;36.01;98818.66;2210248;81;20953;-81
2021/05/27 10:04:58;;;;;;;1.65;1.30;;;;;;;20.11;37.03;98823.87;2210098;81;21089;-80
2021/05/27 10:07:59;;;;;;;1.22;1.10;;;;;;;20.13;36.63;98820.27;2200767;79;21421;-82
2021/05/27 10:11:00;;;;;;;3.22;1.70;;;;;;;20.33;36.91;98825.89;2147578;82;21054;-81
2021/05/27 10:14:01;;;;;;;1.92;1.45;;;;;;;20.49;36.77;98819.73;2174937;79;20970;-81
2021/05/27 10:17:02;;;;;;;2.62;1.37;;;;;;;20.66;35.28;98821.90;2191015;79;21055;-80
2021/05/27 10:20:03;;;;;;;4.62;1.50;;;;;;;20.97;36.26;98809.95;2123124;82;21419;-81
2021/05/27 10:23:06;;;;;;;11.78;3.50;;;;;;;21.62;34.41;98803.88;2190223;79;20957;-82
2021/05/27 10:26:06;;;;;;;3.83;1.85;;;;;;;21.83;33.71;98808.09;2190653;81;21049;-81
2021/05/27 10:29:07;;;;;;;15.28;2.10;;;;;;;21.79;33.91;98806.47;2204612;81;21113;-82
2021/05/27 10:32:09;;;;;;;2.92;1.20;;;;;;;21.73;34.16;98804.02;2214312;79;21042;-81
2021/05/27 10:35:10;;;;;;;1.75;1.22;;;;;;;21.61;33.93;98808.78;2211461;79;21077;-81
2021/05/27 10:38:12;;;;;;;1.32;1.22;;;;;;;21.43;34.66;98821.34;2146416;82;21814;-84
2021/05/27 10:41:13;;;;;;;1.50;1.40;;;;;;;21.32;33.98;98814.18;2190175;81;21460;-81
2021/05/27 10:44:15;;;;;;;2.42;1.82;;;;;;;21.18;33.55;98826.98;2116194;83;21000;-82
2021/05/27 10:47:17;;;;;;;3.12;1.45;;;;;;;21.19;33.44;98828.27;2159805;81;21435;-81
2021/05/27 10:50:18;;;;;;;5.40;1.70;;;;;;;21.27;34.18;98819.64;2184918;80;21386;-82
2021/05/27 10:53:19;;;;;;;3.47;1.45;;;;;;;21.69;33.70;98823.17;2197995;80;20988;-80
2021/05/27 10:56:20;;;;;;;4.37;3.45;;;;;;;21.63;33.70;98823.34;2201617;79;21038;-81
2021/05/27 10:59:21;;;;;;;4.97;1.22;;;;;;;21.53;33.59;98825.44;2174419;80;21078;-80
2021/05/27 11:02:21;;;;;;;4.37;1.60;;;;;;;21.85;33.08;98823.53;2134669;82;20999;-81
2021/05/27 11:05:24;;;;;;;2.98;1.10;;;;;;;22.11;32.64;98814.22;2198519;80;20962;-79
2021/05/27 11:08:25;;;;;;;4.78;1.52;;;;;;;22.24;32.55;98817.31;2189541;79;21010;-80
2021/05/27 11:11:26;;;;;;;4.22;1.32;;;;;;;21.91;32.82;98829.96;2176308;81;21054;-79
2021/05/27 11:14:28;;;;;;;2.27;1.30;;;;;;;21.52;33.75;98832.12;2178712;79;21420;-80
2021/05/27 11:17:29;;;;;;;1.82;1.22;;;;;;;21.59;33.91;98832.34;2192153;80;21013;-80
2021/05/27 11:20:32;;;;;;;4.47;1.37;;;;;;;21.83;33.94;98828.02;2181054;80;20939;-78
2021/05/27 11:23:33;;;;;;;5.35;1.12;;;;;;;21.94;33.14;98833.84;2200444;80;21501;-79
2021/05/27 11:26:41;;;;;;;4.47;1.07;;;;;;;21.77;33.55;98839.73;2177916;80;20998;-80
2021/05/27 11:29:42;;;;;;;2.80;1.40;;;;;;;21.57;33.16;98829.73;2190648;80;21094;-79
2021/05/27 11:32:43;;;;;;;2.50;1.52;;;;;;;21.36;33.47;98827.77;2160863;81;21005;-80
2021/05/27 11:35:44;;;;;;;2.12;0.95;;;;;;;21.42;32.51;98824.05;2198087;81;20994;-80
2021/05/27 11:38:45;;;;;;;1.87;1.25;;;;;;;21.30;32.88;98823.52;2162122;82;20964;-82
2021/05/27 11:41:46;;;;;;;2.42;1.37;;;;;;;21.52;33.33;98821.50;2184147;80;21081;-80
2021/05/27 11:44:47;;;;;;;5.72;1.15;;;;;;;21.86;32.53;98823.47;2202766;81;21343;-80
2021/05/27 11:47:48;;;;;;;0.80;0.80;;;;;;;22.05;32.44;98818.42;2123055;84;20972;-83
2021/05/27 11:50:52;;;;;;;3.25;1.10;;;;;;;22.23;31.53;98823.09;2195937;80;20989;-77
2021/05/27 11:53:54;;;;;;;2.00;1.10;;;;;;;22.18;31.77;98820.19;2209058;80;21006;-80
2021/05/27 11:56:55;;;;;;;7.53;1.27;;;;;;;22.14;31.92;98816.77;2165703;81;21050;-80
2021/05/27 11:59:56;;;;;;;1.00;0.90;;;;;;;21.96;31.16;98821.37;2190815;81;21117;-81
2021/05/27 12:03:00;;;;;;;4.42;3.52;;;;;;;22.20;31.22;98817.02;2198658;81;20970;-80
2021/05/27 12:06:02;;;;;;;2.35;1.20;;;;;;;22.21;31.53;98805.46;2121203;84;21006;-80
2021/05/27 12:09:03;;;;;;;3.62;0.95;;;;;;;22.15;31.14;98810.53;2209753;81;20957;-81
2021/05/27 12:12:04;;;;;;;8.98;1.52;;;;;;;22.01;31.24;98802.14;2198307;81;21043;-80
2021/05/27 12:15:05;;;;;;;3.92;1.25;;;;;;;21.87;30.75;98805.28;2110773;84;21018;-78
2021/05/27 12:18:06;;;;;;;5.08;1.50;;;;;;;21.81;31.72;98801.97;2212968;80;21085;-81
2021/05/27 12:21:07;;;;;;;1.12;1.00;;;;;;;21.78;32.07;98810.91;2212987;80;20988;-81
2021/05/27 12:24:08;;;;;;;1.17;1.00;;;;;;;21.83;31.53;98806.31;2207317;79;21397;-78
2021/05/27 12:27:09;;;;;;;5.22;1.25;;;;;;;22.23;30.98;98803.16;2118613;84;21047;-80
2021/05/27 12:30:10;;;;;;;1.20;1.10;;;;;;;22.46;30.77;98800.12;2170734;82;21049;-81
2021/05/27 12:33:11;;;;;;;2.22;1.10;;;;;;;22.70;30.73;98793.05;2171575;82;21428;-80
2021/05/27 12:36:12;;;;;;;4.83;1.25;;;;;;;22.74;30.80;98795.53;2171655;82;21033;-80
2021/05/27 12:39:13;;;;;;;1.98;0.80;;;;;;;22.38;30.75;98804.85;2172005;82;20966;-81
2021/05/27 12:42:14;;;;;;;1.05;1.05;;;;;;;22.02;31.31;98803.87;2172017;82;20962;-81
2021/05/27 12:45:15;;;;;;;0.90;0.90;;;;;;;21.79;31.25;98809.12;2171995;82;20990;-81
2021/05/27 12:48:16;;;;;;;20.80;16.87;;;;;;;21.67;31.46;98815.69;2171583;82;21010;-80
2021/05/27 12:51:17;;;;;;;3.33;1.52;;;;;;;21.85;31.66;98811.56;2128186;84;21431;-82
2021/05/27 12:54:18;;;;;;;1.72;1.30;;;;;;;22.27;31.56;98808.36;2172501;82;21441;-82
2021/05/27 12:57:19;;;;;;;1.80;0.93;;;;;;;22.58;31.32;98807.68;2172585;82;21049;-81
2021/05/27 13:00:20;;;;;;;1.20;1.10;;;;;;;22.53;29.90;98802.95;2172279;82;22203;-81
2021/05/27 13:03:21;;;;;;;2.55;1.10;;;;;;;22.43;30.17;98806.88;2172139;82;21482;-82
2021/05/27 13:06:22;;;;;;;1.30;1.00;;;;;;;22.58;30.42;98804.15;2171660;82;21096;-79
2021/05/27 13:09:23;;;;;;;2.12;1.20;;;;;;;22.48;30.55;98807.58;2171214;82;21036;-80
2021/05/27 13:12:24;;;;;;;5.30;1.02;;;;;;;22.38;30.24;98811.50;2171132;82;20982;-80
2021/05/27 13:15:25;;;;;;;4.25;1.00;;;;;;;22.56;30.02;98810.39;2171706;82;21029;-80
2021/05/27 13:18:28;;;;;;;4.00;1.15;;;;;;;22.80;30.54;98800.66;2171517;82;21065;-80
2021/05/27 13:21:29;;;;;;;3.85;0.90;;;;;;;23.53;29.87;98798.69;2171669;82;20986;-81
2021/05/27 13:24:30;;;;;;;1.30;1.20;;;;;;;23.80;29.18;98796.23;2171637;82;21105;-81
2021/05/27 13:27:49;;;;;;;171.95;23.25;;;;;;;23.89;28.44;98793.17;2171983;82;21093;-80
2021/05/27 13:30:51;;;;;;;13.25;2.00;;;;;;;23.56;29.36;98796.80;2127806;84;21075;-82
2021/05/27 13:33:52;;;;;;;2.25;1.07;;;;;;;23.44;29.97;98791.47;2171675;82;20978;-80
2021/05/27 13:36:52;;;;;;;1.70;1.17;;;;;;;23.20;29.35;98792.44;2172221;82;21450;-80
2021/05/27 13:39:53;;;;;;;2.50;0.90;;;;;;;22.81;29.80;98793.53;2172080;82;21361;-81
2021/05/27 13:42:56;;;;;;;126.02;112.30;;;;;;;22.51;29.47;98787.05;2172256;82;21009;-82
2021/05/27 13:45:57;;;;;;;4.28;3.35;;;;;;;22.34;29.63;98788.14;2172344;82;21349;-80
2021/05/27 13:48:58;;;;;;;3.40;1.57;;;;;;;22.34;30.55;98789.47;2172964;82;21347;-81
2021/05/27 13:52:03;;;;;;;0.93;0.93;;;;;;;22.41;30.59;98786.99;2173202;82;21307;-82
2021/05/27 13:55:04;;;;;;;2.92;1.10;;;;;;;22.44;30.14;98790.00;2173211;82;21469;-81
2021/05/27 13:58:05;;;;;;;3.25;1.25;;;;;;;22.47;30.84;98785.89;2172370;82;20977;-81
2021/05/27 14:01:06;;;;;;;0.82;0.80;;;;;;;22.63;30.40;98782.23;2172408;82;20982;-80
2021/05/27 14:04:07;;;;;;;1.20;1.20;;;;;;;22.49;30.27;98777.40;2172409;82;21053;-79
2021/05/27 14:07:08;;;;;;;10.58;1.60;;;;;;;22.34;30.02;98781.49;2172094;82;21694;-80
2021/05/27 14:10:09;;;;;;;4.65;1.82;;;;;;;22.01;30.51;98776.90;2171804;82;21000;-80
2021/05/27 14:13:10;;;;;;;16.52;2.20;;;;;;;21.90;31.07;98773.75;2172245;82;21369;-83
2021/05/27 14:16:11;;;;;;;5.40;1.45;;;;;;;21.68;31.41;98776.28;2171446;82;21049;-81
2021/05/27 14:19:12;;;;;;;5.30;1.75;;;;;;;21.30;32.03;98770.89;2175979;82;21476;-82
2021/05/27 14:22:13;;;;;;;5.95;2.50;;;;;;;20.89;32.58;98786.30;2178940;82;20981;-80
2021/05/27 14:25:17;;;;;;;5.83;2.98;;;;;;;20.63;32.77;98782.20;2179280;82;21358;-81
2021/05/27 14:28:17;;;;;;;10.58;5.50;;;;;;;20.27;33.27;98775.70;2179938;82;21041;-80
2021/05/27 14:31:19;;;;;;;7.42;4.40;;;;;;;20.04;34.20;98777.66;2180232;82;21081;-82
2021/05/27 14:34:22;;;;;;;5.37;3.65;;;;;;;19.81;34.20;98769.44;2180311;82;21024;-83
2021/05/27 14:37:35;;;;;;;4.72;3.17;;;;;;;19.73;34.66;98770.96;2180811;82;21046;-82
2021/05/27 14:40:36;;;;;;;;;;;;;;;19.73;34.83;98769.64;2182929;82;21002;-81
2021/05/27 14:43:37;;;;;;;7.05;4.17;;;;;;;19.65;35.05;98762.34;2179967;82;20198;-82
2021/05/27 14:46:38;;;;;;;5.42;4.05;;;;;;;19.61;35.18;98767.31;2180289;82;21721;-83
2021/05/27 14:49:39;;;;;;;5.15;3.65;;;;;;;19.61;35.24;98760.69;2180518;82;21020;-82
2021/05/27 14:52:40;;;;;;;4.33;3.12;;;;;;;19.56;35.28;98767.02;2180106;82;21017;-83
2021/05/27 14:55:44;;;;;;;4.05;3.12;;;;;;;19.48;35.26;98766.30;2180009;82;21009;-83